Terminal Aerodrome Forecast
Issued by NWS

Home | Current Version | Previous Version | Graphics & Text | Print | Product List | Glossary Off
Versions: 1 2 3 4 5 6 7 8 9 10 11 12 13

000
FTUS41 KCLE 261120
TAFFDY
TAF
KFDY 261120Z 2612/2712 24008KT P6SM BKN060
     FM261500 26014G22KT P6SM BKN050
     FM262300 27012KT P6SM SCT050 BKN100=

USA.gov is the U.S. government's official web portal to all federal, state and local government web resources and services.